createdAt,value
2022-11-28T00:01:34.122Z,10.63
2022-11-28T00:04:01.260Z,11.40
2022-11-28T00:06:28.558Z,10.90
2022-11-28T00:08:57.599Z,11.13
2022-11-28T00:11:24.958Z,11.43
2022-11-28T00:13:52.108Z,10.87
2022-11-28T00:16:23.829Z,10.93
2022-11-28T00:18:52.239Z,10.73
2022-11-28T00:21:19.959Z,11.17
2022-11-28T00:23:48.217Z,10.80
2022-11-28T00:26:21.817Z,10.77
2022-11-28T00:28:49.039Z,10.50
2022-11-28T00:31:18.653Z,10.63
2022-11-28T00:33:46.434Z,10.60
2022-11-28T00:36:13.810Z,10.57
2022-11-28T00:38:41.379Z,10.93
2022-11-28T00:41:12.036Z,10.70
2022-11-28T00:43:39.861Z,10.07
2022-11-28T00:46:07.385Z,11.20
2022-11-28T00:48:35.386Z,10.83
2022-11-28T00:51:11.352Z,9.90
2022-11-28T00:53:40.510Z,10.93
2022-11-28T00:56:09.342Z,11.13
2022-11-28T00:58:36.845Z,11.13
2022-11-28T01:01:12.659Z,11.50
2022-11-28T01:03:40.358Z,11.57
2022-11-28T01:06:08.385Z,11.40
2022-11-28T01:08:35.645Z,11.57
2022-11-28T01:11:02.714Z,11.40
2022-11-28T01:13:29.976Z,11.50
2022-11-28T01:15:58.697Z,12.17
2022-11-28T01:18:25.595Z,11.80
2022-11-28T01:20:52.537Z,12.00
2022-11-28T01:23:19.387Z,12.57
2022-11-28T01:25:46.169Z,12.80
2022-11-28T01:28:12.970Z,12.60
2022-11-28T01:30:39.750Z,13.43
2022-11-28T01:33:06.613Z,13.03
2022-11-28T01:35:33.421Z,12.47
2022-11-28T01:38:00.239Z,13.17
2022-11-28T01:40:27.188Z,13.37
2022-11-28T01:42:54.055Z,13.73
2022-11-28T01:45:23.979Z,12.83
2022-11-28T01:47:53.620Z,12.87
2022-11-28T01:50:21.721Z,13.23
2022-11-28T01:52:52.610Z,13.33
2022-11-28T01:55:22.696Z,12.63
2022-11-28T01:57:49.881Z,13.70
2022-11-28T02:00:20.230Z,12.83
2022-11-28T02:02:54.540Z,13.50
2022-11-28T02:05:22.779Z,12.27
2022-11-28T02:07:51.399Z,13.47
2022-11-28T02:10:28.573Z,14.03
2022-11-28T02:13:20.078Z,13.53
2022-11-28T02:15:58.973Z,11.90
2022-11-28T02:19:16.516Z,13.23
2022-11-28T02:21:55.629Z,12.37
2022-11-28T02:24:43.923Z,11.57
2022-11-28T02:27:29.186Z,13.30
2022-11-28T02:30:29.608Z,12.27
2022-11-28T02:33:08.408Z,12.03
2022-11-28T02:36:12.661Z,12.57
2022-11-28T02:38:50.411Z,11.87
2022-11-28T02:41:33.422Z,11.70
2022-11-28T02:44:14.805Z,11.80
2022-11-28T02:46:56.307Z,12.03
2022-11-28T02:49:29.454Z,11.70
2022-11-28T02:52:02.098Z,11.73
2022-11-28T02:54:31.624Z,11.53
2022-11-28T02:56:58.492Z,11.07
2022-11-28T02:59:37.451Z,10.83
2022-11-28T03:02:10.989Z,11.43
2022-11-28T03:04:56.678Z,11.23
2022-11-28T03:07:43.192Z,11.43
2022-11-28T03:10:37.608Z,11.17
2022-11-28T03:13:26.636Z,10.90
2022-11-28T03:16:15.246Z,11.10
2022-11-28T03:18:53.417Z,10.90
2022-11-28T03:21:38.514Z,11.50
2022-11-28T03:24:15.021Z,11.30
2022-11-28T03:27:08.879Z,11.90
2022-11-28T03:29:45.678Z,11.20
2022-11-28T03:32:19.540Z,12.07
2022-11-28T03:34:48.861Z,12.03
2022-11-28T03:37:20.880Z,11.97
2022-11-28T03:39:53.751Z,11.93
2022-11-28T03:42:24.453Z,11.37
2022-11-28T03:45:07.205Z,11.43
2022-11-28T03:47:40.537Z,11.47
2022-11-28T03:50:15.552Z,11.23
2022-11-28T03:52:50.369Z,11.20
2022-11-28T03:55:34.756Z,11.40
2022-11-28T03:58:36.059Z,10.93
2022-11-28T04:01:28.919Z,11.80
2022-11-28T04:04:18.733Z,10.90
2022-11-28T04:06:56.114Z,11.37
2022-11-28T04:09:51.137Z,11.10
2022-11-28T04:12:28.874Z,11.57
2022-11-28T04:15:09.849Z,11.13
2022-11-28T04:18:02.071Z,12.30
2022-11-28T04:20:46.715Z,11.73
2022-11-28T04:23:17.423Z,11.73
2022-11-28T04:25:53.352Z,11.77
2022-11-28T04:28:24.844Z,11.47
2022-11-28T04:30:54.972Z,11.23
2022-11-28T04:33:24.553Z,12.13
2022-11-28T04:35:54.957Z,11.70
2022-11-28T04:38:24.360Z,11.37
2022-11-28T04:41:09.988Z,12.13
2022-11-28T04:43:43.520Z,11.73
2022-11-28T04:46:16.101Z,12.13
2022-11-28T04:48:43.556Z,13.03
2022-11-28T04:51:20.346Z,12.43
2022-11-28T04:54:12.948Z,11.17
2022-11-28T04:56:55.917Z,12.17
2022-11-28T04:59:26.291Z,12.30
2022-11-28T05:01:55.804Z,12.17
2022-11-28T05:04:22.925Z,11.80
2022-11-28T05:06:50.088Z,12.23
2022-11-28T05:09:16.891Z,11.73
2022-11-28T05:11:43.682Z,11.87
2022-11-28T05:14:10.429Z,11.97
2022-11-28T05:16:37.266Z,12.20
2022-11-28T05:19:04.036Z,11.37
2022-11-28T05:21:30.832Z,12.00
2022-11-28T05:23:57.757Z,11.70
2022-11-28T05:26:26.013Z,12.00
2022-11-28T05:28:52.875Z,11.23
2022-11-28T05:31:21.622Z,11.03
2022-11-28T05:33:48.691Z,10.87
2022-11-28T05:36:16.459Z,11.13
2022-11-28T05:38:44.123Z,12.13
2022-11-28T05:41:19.746Z,11.10
2022-11-28T05:43:46.681Z,11.83
2022-11-28T05:46:13.643Z,11.33
2022-11-28T05:48:40.459Z,11.57
2022-11-28T05:51:07.891Z,11.77
2022-11-28T05:53:34.955Z,11.83
2022-11-28T05:56:11.392Z,11.77
2022-11-28T05:58:38.366Z,11.63
2022-11-28T06:01:20.391Z,11.80
2022-11-28T06:03:47.683Z,12.47
2022-11-28T06:06:20.731Z,12.23
2022-11-28T06:08:49.391Z,12.10
2022-11-28T06:11:17.413Z,11.43
2022-11-28T06:13:45.661Z,12.57
2022-11-28T06:16:15.764Z,11.03
2022-11-28T06:18:42.881Z,12.37
2022-11-28T06:21:11.511Z,11.80
2022-11-28T06:23:38.695Z,12.30
2022-11-28T06:26:10.849Z,12.83
2022-11-28T06:28:38.113Z,12.37
2022-11-28T06:31:09.249Z,13.10
2022-11-28T06:33:36.084Z,12.80
2022-11-28T06:36:05.160Z,12.43
2022-11-28T06:38:32.752Z,12.77
2022-11-28T06:41:01.887Z,12.93
2022-11-28T06:43:29.798Z,13.80
2022-11-28T06:45:56.645Z,13.83
2022-11-28T06:48:24.053Z,13.80
2022-11-28T06:50:51.305Z,14.20
2022-11-28T06:53:19.047Z,14.43
2022-11-28T06:55:46.589Z,13.67
2022-11-28T06:58:13.575Z,13.70
2022-11-28T07:00:40.419Z,14.00
2022-11-28T07:03:07.145Z,13.70
2022-11-28T07:05:33.906Z,13.83
2022-11-28T07:08:00.787Z,13.53
2022-11-28T07:10:28.553Z,13.73
2022-11-28T07:13:04.936Z,13.63
2022-11-28T07:15:32.283Z,13.87
2022-11-28T07:17:59.170Z,13.63
2022-11-28T07:20:25.931Z,14.03
2022-11-28T07:22:52.713Z,14.10
2022-11-28T07:25:19.469Z,14.87
2022-11-28T07:27:46.240Z,13.43
2022-11-28T07:30:13.334Z,14.03
2022-11-28T07:32:41.093Z,13.97
2022-11-28T07:35:08.957Z,13.67
2022-11-28T07:37:36.249Z,14.20
2022-11-28T07:40:04.270Z,13.67
2022-11-28T07:42:31.044Z,15.40
2022-11-28T07:45:04.757Z,13.97
2022-11-28T07:47:31.680Z,13.33
2022-11-28T07:49:58.505Z,13.87
2022-11-28T07:52:25.299Z,13.70
2022-11-28T07:54:52.131Z,13.60
2022-11-28T07:57:18.872Z,14.63
2022-11-28T07:59:45.842Z,13.97
2022-11-28T08:02:13.221Z,14.33
2022-11-28T08:04:45.943Z,13.03
2022-11-28T08:07:15.480Z,13.90
2022-11-28T08:09:42.673Z,13.43
2022-11-28T08:12:09.714Z,14.53
2022-11-28T08:14:36.473Z,13.50
2022-11-28T08:17:03.343Z,14.40
2022-11-28T08:19:33.720Z,13.63
2022-11-28T08:22:02.098Z,14.57
2022-11-28T08:24:28.865Z,14.20
2022-11-28T08:26:55.626Z,14.53
2022-11-28T08:29:22.388Z,13.97
2022-11-28T08:31:49.465Z,14.80
2022-11-28T08:34:16.232Z,14.80
2022-11-28T08:36:43.503Z,13.80
2022-11-28T08:39:26.992Z,14.77
2022-11-28T08:41:57.310Z,15.40
2022-11-28T08:44:24.496Z,15.07
2022-11-28T08:46:51.357Z,14.60
2022-11-28T08:49:18.416Z,14.47
2022-11-28T08:51:45.302Z,14.00
2022-11-28T08:54:12.308Z,14.30
2022-11-28T08:56:39.092Z,14.23
2022-11-28T08:59:07.100Z,14.67
2022-11-28T09:01:34.366Z,14.00
2022-11-28T09:04:01.606Z,14.13
2022-11-28T09:06:28.725Z,14.57
2022-11-28T09:08:55.544Z,14.97
2022-11-28T09:11:23.302Z,14.87
2022-11-28T09:13:50.267Z,14.30
2022-11-28T09:16:17.595Z,13.63
2022-11-28T09:18:44.435Z,14.57
2022-11-28T09:21:13.903Z,15.47
2022-11-28T09:23:42.379Z,14.93
2022-11-28T09:26:14.857Z,14.23
2022-11-28T09:28:41.944Z,14.70
2022-11-28T09:31:09.321Z,13.27
2022-11-28T09:33:36.606Z,14.10
2022-11-28T09:36:11.639Z,14.00
2022-11-28T09:38:38.801Z,14.60
2022-11-28T09:41:29.702Z,14.13
2022-11-28T09:44:06.834Z,13.67
2022-11-28T09:46:36.593Z,14.87
2022-11-28T09:49:14.971Z,14.67
2022-11-28T09:52:10.708Z,14.43
2022-11-28T09:54:44.395Z,15.17
2022-11-28T09:57:18.093Z,15.57
2022-11-28T09:59:46.296Z,14.67
2022-11-28T10:02:13.083Z,14.60
2022-11-28T10:04:59.932Z,15.70
2022-11-28T10:07:36.407Z,14.60
2022-11-28T10:10:21.174Z,15.90
2022-11-28T10:13:03.755Z,16.03
2022-11-28T10:16:03.837Z,15.23
2022-11-28T10:18:52.172Z,15.83
2022-11-28T10:21:26.516Z,16.37
2022-11-28T10:23:59.804Z,15.63
2022-11-28T10:26:43.010Z,15.40
2022-11-28T10:29:26.344Z,15.37
2022-11-28T10:31:58.555Z,15.83
2022-11-28T10:34:41.222Z,14.77
2022-11-28T10:37:31.510Z,14.20
2022-11-28T10:40:24.940Z,15.17
2022-11-28T10:43:15.879Z,15.50
2022-11-28T10:45:53.842Z,15.63
2022-11-28T10:48:39.909Z,15.43
2022-11-28T10:51:13.114Z,13.40
2022-11-28T10:53:42.847Z,14.30
2022-11-28T10:56:39.407Z,14.50
2022-11-28T10:59:21.467Z,14.73
2022-11-28T11:01:50.615Z,13.83
2022-11-28T11:04:24.132Z,14.87
2022-11-28T11:07:29.365Z,14.80
2022-11-28T11:10:06.254Z,14.57
2022-11-28T11:12:34.729Z,14.47
2022-11-28T11:15:24.419Z,15.03
2022-11-28T11:17:52.021Z,14.30
2022-11-28T11:20:39.909Z,14.53
2022-11-28T11:23:21.668Z,13.47
2022-11-28T11:25:58.568Z,14.43
2022-11-28T11:28:47.574Z,14.30
2022-11-28T11:31:30.911Z,14.07
2022-11-28T11:34:17.448Z,13.47
2022-11-28T11:36:44.643Z,14.03
2022-11-28T11:39:11.408Z,13.57
2022-11-28T11:41:46.908Z,13.13
2022-11-28T11:44:22.151Z,13.30
2022-11-28T11:47:09.786Z,12.87
2022-11-28T11:49:41.709Z,14.30
2022-11-28T11:52:14.663Z,13.30
2022-11-28T11:54:53.389Z,13.23
2022-11-28T11:57:34.385Z,13.20
2022-11-28T12:00:15.748Z,13.53
2022-11-28T12:03:04.974Z,12.80
2022-11-28T12:06:12.607Z,13.00
2022-11-28T12:08:50.312Z,13.00
2022-11-28T12:11:32.001Z,12.73
2022-11-28T12:14:10.391Z,12.57
2022-11-28T12:17:14.326Z,12.03
2022-11-28T12:20:08.620Z,11.93
2022-11-28T12:23:17.181Z,12.40
2022-11-28T12:26:10.691Z,11.67
2022-11-28T12:29:02.298Z,12.33
2022-11-28T12:31:41.174Z,11.40
2022-11-28T12:34:44.555Z,11.57
2022-11-28T12:38:09.115Z,12.53
2022-11-28T12:40:54.648Z,12.23
2022-11-28T12:43:41.405Z,11.33
2022-11-28T12:46:27.088Z,11.57
2022-11-28T12:49:25.153Z,11.57
2022-11-28T12:52:07.844Z,11.93
2022-11-28T12:54:40.376Z,11.30
2022-11-28T12:57:26.451Z,11.67
2022-11-28T13:00:13.794Z,10.73
2022-11-28T13:02:59.227Z,10.73
2022-11-28T13:05:40.595Z,11.30
2022-11-28T13:08:32.256Z,11.10
2022-11-28T13:11:13.034Z,12.07
2022-11-28T13:13:52.655Z,12.30
2022-11-28T13:16:46.492Z,13.17
2022-11-28T13:19:33.443Z,13.73
2022-11-28T13:22:38.339Z,14.73
2022-11-28T13:25:28.785Z,14.67
2022-11-28T13:28:25.025Z,14.83
2022-11-28T13:31:04.731Z,13.97
2022-11-28T13:33:54.539Z,14.73
2022-11-28T13:39:58.492Z,15.43
2022-11-28T13:43:07.757Z,14.83
2022-11-28T13:45:39.480Z,15.37
2022-11-28T13:49:05.915Z,15.57
2022-11-28T13:51:33.338Z,15.60
2022-11-28T13:54:21.612Z,16.07
2022-11-28T13:57:23.926Z,15.03
2022-11-28T14:00:18.401Z,15.07
2022-11-28T14:02:50.021Z,15.50
2022-11-28T14:05:26.561Z,15.87
2022-11-28T14:07:56.068Z,15.77
2022-11-28T14:10:52.906Z,15.50
2022-11-28T14:13:36.942Z,15.57
2022-11-28T14:16:33.942Z,15.50
2022-11-28T14:19:22.740Z,15.77
2022-11-28T14:22:22.023Z,15.10
2022-11-28T14:25:03.047Z,14.77
2022-11-28T14:27:34.709Z,15.93
2022-11-28T14:30:02.186Z,14.63
2022-11-28T14:32:42.240Z,15.80
2022-11-28T14:35:41.741Z,15.07
2022-11-28T14:38:31.053Z,15.43
2022-11-28T14:40:59.539Z,15.53
2022-11-28T14:43:28.839Z,16.43
2022-11-28T14:46:20.760Z,15.83
2022-11-28T14:49:14.993Z,15.43
2022-11-28T14:51:48.045Z,15.30
2022-11-28T14:54:32.104Z,16.47
2022-11-28T14:57:00.138Z,15.93
2022-11-28T14:59:36.915Z,16.10
2022-11-28T15:02:13.105Z,16.73
2022-11-28T15:05:00.018Z,16.77
2022-11-28T15:07:54.755Z,16.33
2022-11-28T15:10:38.952Z,17.60
2022-11-28T15:13:18.271Z,16.83
2022-11-28T15:15:53.250Z,17.37
2022-11-28T15:18:22.503Z,17.00
2022-11-28T15:20:58.661Z,17.20
2022-11-28T15:23:41.061Z,17.03
2022-11-28T15:26:35.926Z,16.93
2022-11-28T15:29:10.299Z,17.40
2022-11-28T15:31:37.844Z,17.20
2022-11-28T15:34:09.701Z,17.07
2022-11-28T15:36:39.331Z,18.30
2022-11-28T15:39:35.043Z,17.17
2022-11-28T15:42:05.746Z,18.30
2022-11-28T15:44:32.898Z,16.97
2022-11-28T15:46:59.935Z,18.17
2022-11-28T15:49:33.134Z,16.87
2022-11-28T15:52:03.367Z,17.03
2022-11-28T15:54:33.405Z,17.57
2022-11-28T15:57:01.256Z,17.57
2022-11-28T15:59:28.714Z,18.00
2022-11-28T16:01:59.811Z,18.10
2022-11-28T16:04:29.698Z,17.77
2022-11-28T16:06:59.907Z,18.00
2022-11-28T16:09:31.085Z,17.20
2022-11-28T16:11:58.109Z,19.03
2022-11-28T16:14:35.910Z,20.67
2022-11-28T16:17:08.100Z,19.77
2022-11-28T16:19:38.339Z,20.30
2022-11-28T16:22:09.310Z,18.67
2022-11-28T16:24:56.022Z,19.53
2022-11-28T16:27:29.258Z,19.57
2022-11-28T16:29:56.594Z,19.27
2022-11-28T16:32:32.560Z,19.57
2022-11-28T16:35:02.484Z,19.07
2022-11-28T16:37:31.599Z,18.70
2022-11-28T16:40:13.380Z,18.43
2022-11-28T16:42:41.096Z,18.77
2022-11-28T16:45:22.045Z,19.17
2022-11-28T16:48:08.655Z,18.40
2022-11-28T16:50:36.309Z,19.07
2022-11-28T16:53:04.270Z,19.57
2022-11-28T16:55:31.778Z,20.23
2022-11-28T16:58:07.198Z,19.73
2022-11-28T17:00:35.223Z,20.37
2022-11-28T17:03:03.386Z,20.80
2022-11-28T17:05:30.632Z,19.27
2022-11-28T17:07:58.021Z,20.97
2022-11-28T17:10:27.916Z,20.00
2022-11-28T17:12:55.053Z,20.30
2022-11-28T17:15:23.551Z,20.70
2022-11-28T17:17:50.412Z,20.47
2022-11-28T17:20:17.886Z,20.00
2022-11-28T17:22:47.754Z,20.13
2022-11-28T17:25:20.244Z,20.80
2022-11-28T17:27:48.404Z,22.30
2022-11-28T17:30:19.605Z,20.40
2022-11-28T17:32:51.923Z,22.50
2022-11-28T17:35:23.214Z,23.27
2022-11-28T17:37:50.155Z,22.77
2022-11-28T17:40:36.698Z,20.97
2022-11-28T17:43:04.352Z,22.47
2022-11-28T17:45:34.572Z,21.30
2022-11-28T17:48:01.394Z,23.23
2022-11-28T17:50:28.599Z,22.83
2022-11-28T17:52:55.632Z,23.63
2022-11-28T17:55:22.553Z,23.03
2022-11-28T17:57:49.327Z,23.00
2022-11-28T18:00:16.910Z,24.07
2022-11-28T18:02:44.919Z,23.20
2022-11-28T18:05:12.094Z,24.93
2022-11-28T18:07:40.110Z,23.67
2022-11-28T18:10:11.146Z,23.87
2022-11-28T18:12:39.059Z,23.33
2022-11-28T18:15:07.684Z,23.03
2022-11-28T18:17:34.501Z,24.73
2022-11-28T18:20:02.290Z,25.23
2022-11-28T18:22:29.090Z,25.67
2022-11-28T18:24:55.938Z,26.13
2022-11-28T18:27:22.753Z,26.60
2022-11-28T18:29:49.602Z,27.77
2022-11-28T18:32:16.791Z,25.97
2022-11-28T18:34:43.618Z,32.37
2022-11-28T18:37:10.744Z,32.37
2022-11-28T18:39:37.788Z,29.50
2022-11-28T18:42:05.564Z,27.70
2022-11-28T18:44:32.672Z,26.97
2022-11-28T18:46:59.597Z,28.20
2022-11-28T18:49:27.160Z,34.83
2022-11-28T18:51:56.584Z,30.83
2022-11-28T18:54:23.722Z,34.67
2022-11-28T18:56:50.572Z,39.13
2022-11-28T18:59:17.800Z,29.33
2022-11-28T19:01:44.826Z,31.83
2022-11-28T19:04:12.604Z,27.20
2022-11-28T19:06:40.588Z,28.83
2022-11-28T19:09:11.138Z,26.87
2022-11-28T19:11:39.010Z,28.67
2022-11-28T19:14:07.968Z,27.17
2022-11-28T19:16:37.688Z,26.00
2022-11-28T19:19:06.165Z,26.47
2022-11-28T19:21:35.912Z,26.10
2022-11-28T19:24:03.781Z,27.77
2022-11-28T19:26:33.486Z,27.43
2022-11-28T19:29:01.648Z,27.57
2022-11-28T19:31:34.214Z,28.07
2022-11-28T19:34:03.669Z,27.77
2022-11-28T19:36:34.008Z,26.37
2022-11-28T19:39:01.462Z,27.67
2022-11-28T19:41:29.685Z,26.47
2022-11-28T19:43:57.364Z,26.83
2022-11-28T19:46:24.595Z,27.07
2022-11-28T19:48:51.965Z,26.23
2022-11-28T19:51:20.364Z,27.47
2022-11-28T19:53:47.898Z,26.77
2022-11-28T19:56:18.135Z,28.00
2022-11-28T19:58:45.500Z,27.37
2022-11-28T20:01:24.062Z,26.97
2022-11-28T20:03:53.489Z,25.20
2022-11-28T20:06:25.069Z,26.73
2022-11-28T20:08:54.112Z,27.20
2022-11-28T20:11:24.088Z,27.60
2022-11-28T20:13:59.226Z,27.10
2022-11-28T20:16:28.184Z,26.93
2022-11-28T20:18:57.318Z,27.03
2022-11-28T20:21:24.193Z,27.07
2022-11-28T20:23:54.857Z,27.07
2022-11-28T20:26:24.280Z,26.90
2022-11-28T20:28:56.009Z,26.63
2022-11-28T20:31:28.128Z,27.07
2022-11-28T20:33:55.181Z,27.00
2022-11-28T20:36:24.162Z,26.83
2022-11-28T20:38:52.234Z,26.53
2022-11-28T20:41:21.044Z,26.23
2022-11-28T20:43:48.120Z,28.10
2022-11-28T20:46:23.655Z,26.33
2022-11-28T20:48:50.680Z,26.50
2022-11-28T20:51:22.933Z,26.73
2022-11-28T20:53:50.086Z,26.50
2022-11-28T20:56:20.004Z,26.03
2022-11-28T20:58:47.300Z,25.47
2022-11-28T21:01:23.616Z,27.17
2022-11-28T21:03:51.502Z,26.37
2022-11-28T21:06:18.842Z,26.97
2022-11-28T21:08:46.025Z,26.30
2022-11-28T21:11:36.470Z,24.90
2022-11-28T21:14:03.952Z,26.03
2022-11-28T21:16:33.137Z,25.97
2022-11-28T21:19:04.703Z,26.23
2022-11-28T21:21:33.248Z,25.77
2022-11-28T21:24:10.346Z,25.83
2022-11-28T21:26:41.721Z,26.50
2022-11-28T21:29:12.562Z,25.33
2022-11-28T21:31:43.993Z,26.30
2022-11-28T21:34:15.559Z,25.63
2022-11-28T21:36:43.124Z,26.30
2022-11-28T21:39:13.981Z,25.80
2022-11-28T21:41:41.447Z,25.30
2022-11-28T21:44:08.706Z,25.73
2022-11-28T21:46:35.619Z,26.30
2022-11-28T21:49:02.692Z,25.73
2022-11-28T21:51:29.649Z,26.63
2022-11-28T21:53:59.988Z,25.33
2022-11-28T21:56:27.203Z,26.43
2022-11-28T21:58:54.509Z,25.37
2022-11-28T22:01:21.763Z,26.43
2022-11-28T22:03:49.151Z,25.97
2022-11-28T22:06:19.976Z,26.93
2022-11-28T22:08:51.489Z,25.27
2022-11-28T22:11:19.497Z,24.93
2022-11-28T22:13:47.274Z,25.10
2022-11-28T22:16:19.477Z,24.40
2022-11-28T22:18:47.465Z,25.03
2022-11-28T22:24:05.233Z,24.13
2022-11-28T22:26:32.630Z,24.07
2022-11-28T22:29:00.858Z,25.83
2022-11-28T22:31:27.848Z,25.53
2022-11-28T22:33:54.793Z,25.07
2022-11-28T22:36:22.486Z,24.90
2022-11-28T22:38:54.503Z,25.30
2022-11-28T22:41:28.476Z,25.47
2022-11-28T22:44:00.200Z,25.13
2022-11-28T22:46:27.956Z,25.70
2022-11-28T22:48:55.122Z,24.53
2022-11-28T22:51:24.980Z,26.90
2022-11-28T22:53:55.120Z,24.07
2022-11-28T22:56:24.416Z,25.00
2022-11-28T22:58:51.814Z,24.13
2022-11-28T23:01:24.242Z,24.50
2022-11-28T23:03:52.014Z,24.17
2022-11-28T23:06:31.112Z,23.57
2022-11-28T23:08:59.772Z,24.57
2022-11-28T23:11:31.092Z,23.33
2022-11-28T23:13:59.402Z,24.87
2022-11-28T23:16:30.348Z,24.20
2022-11-28T23:19:00.398Z,23.90
2022-11-28T23:21:30.464Z,23.70
2022-11-28T23:23:58.148Z,23.63
2022-11-28T23:26:28.176Z,23.70
2022-11-28T23:28:55.215Z,23.80
2022-11-28T23:31:25.744Z,24.70
2022-11-28T23:33:54.785Z,23.73
2022-11-28T23:36:42.074Z,23.50
2022-11-28T23:39:22.786Z,23.83
2022-11-28T23:41:50.032Z,23.40
2022-11-28T23:44:18.675Z,23.93
2022-11-28T23:46:46.254Z,23.80
2022-11-28T23:49:13.562Z,23.80
2022-11-28T23:51:41.199Z,24.63
2022-11-28T23:54:09.336Z,24.03
2022-11-28T23:56:37.536Z,24.00
2022-11-28T23:59:06.255Z,23.47
